UKON/NLV METAR and TAF weather

Enter ICAO airport designator
Station Type Date Time Source
UKON METAR 2022/01/25 05:10 UTC NOAA

UKON 250510Z 35006MPS 1100 1000SW SHSN SCT003 SCT///CB M05/M06 Q1024 NOSIG


Station Type Date Time Source
UKON Decoded METAR 2022/01/25 05:10 UTC NOAA

Mykolaiv, Ukraine (UKON) 47-03-29N 031-55-15E
Jan 25, 2022 - 12:10 AM EST / 2022.01.25 0510 UTC
Wind: from the N (350 degrees) at 13 MPH (12 KT):0
Visibility: less than 1 mile:0
Sky conditions: partly cloudy
Weather: snow showers; Cumulonimbus clouds observed
Temperature: 23 F (-5 C)
Windchill: 10 F (-12 C):1
Dew Point: 21 F (-6 C)
Relative Humidity: 92%
Pressure (altimeter): 30.24 in. Hg (1024 hPa)
ob: UKON 250510Z 35006MPS 1100 1000SW SHSN SCT003 SCT///CB M05/M06 Q1024 NOSIG
cycle: 5

Station Type Date Time Source
UKON TAF 2018/11/06 15:06 UTC NOAA

TAF
AMD TAF
AMD UKON 061502Z 0615/0724 CNL

Example: see airport list